Time;durP1;ratioP1;P1;durP2;ratioP2;P2;SDS_P1;SDS_P2;PMS_P1;PMS_P2;Temp;Humidity;BMP_temperature;BMP_pressure;BME280_temperature;BME280_humidity;BME280_pressure;Samples;Min_cycle;Max_cycle;Signal;HPM_P1;HPM_P2
2023/01/05 00:02:00;;;;;;;230.32;22.77;;;6.80;99.90;;;;;;4015158;29;20057;-87
2023/01/05 00:04:21;;;;;;;195.88;24.30;;;6.90;99.90;;;;;;4015105;29;20104;-87
2023/01/05 00:06:42;;;;;;;155.20;19.35;;;6.90;99.90;;;;;;4022560;29;20342;-88
2023/01/05 00:09:03;;;;;;;46.88;15.40;;;7.00;99.90;;;;;;4014384;29;20049;-87
2023/01/05 00:24:36;;;;;;;139.07;16.63;;;6.80;99.90;;;;;;4013710;29;20041;-87
2023/01/05 00:26:56;;;;;;;261.20;24.38;;;6.80;99.90;;;;;;4013677;29;20053;-87
2023/01/05 00:29:15;;;;;;;329.60;27.13;;;6.80;99.90;;;;;;4027256;29;20060;-87
2023/01/05 00:31:35;;;;;;;221.18;19.73;;;6.70;99.90;;;;;;4006332;29;20324;-86
2023/01/05 00:33:56;;;;;;;26.52;14.93;;;6.70;99.90;;;;;;4014224;29;20256;-87
2023/01/05 00:36:15;;;;;;;292.10;25.45;;;6.80;99.90;;;;;;4006583;29;20106;-88
2023/01/05 00:38:35;;;;;;;269.20;24.42;;;6.80;99.90;;;;;;4015047;29;20065;-87
2023/01/05 00:40:55;;;;;;;379.25;28.77;;;6.70;99.90;;;;;;4014872;29;20289;-87
2023/01/05 00:43:15;;;;;;;246.40;24.70;;;6.70;99.90;;;;;;4014869;29;20232;-87
2023/01/05 00:45:35;;;;;;;411.55;30.65;;;6.60;99.90;;;;;;4014190;29;20048;-87
2023/01/05 00:47:55;;;;;;;121.93;18.88;;;6.70;99.90;;;;;;4014421;29;20397;-86
2023/01/05 00:50:17;;;;;;;21.63;15.18;;;6.60;99.90;;;;;;4014753;29;20105;-87
2023/01/05 00:52:37;;;;;;;60.60;24.27;;;6.70;99.90;;;;;;4014595;29;20081;-86
2023/01/05 00:54:57;;;;;;;311.13;27.02;;;6.80;99.90;;;;;;4014769;29;20064;-87
2023/01/05 00:57:17;;;;;;;315.33;26.05;;;6.80;99.90;;;;;;4014331;29;20093;-87
2023/01/05 00:59:37;;;;;;;237.82;20.83;;;6.60;99.90;;;;;;4015569;29;20048;-87
2023/01/05 01:01:57;;;;;;;206.38;22.25;;;6.70;99.90;;;;;;4016430;29;20117;-86
2023/01/05 01:04:18;;;;;;;26.77;14.68;;;6.70;99.90;;;;;;4016957;29;20053;-88
2023/01/05 01:06:38;;;;;;;37.17;14.90;;;6.70;99.90;;;;;;4016045;29;20249;-87
2023/01/05 01:08:58;;;;;;;83.53;17.33;;;6.80;99.90;;;;;;4017277;29;20078;-87
2023/01/05 01:11:18;;;;;;;119.75;18.45;;;6.70;99.90;;;;;;4017315;29;20078;-87
2023/01/05 01:13:38;;;;;;;232.52;21.50;;;6.70;99.90;;;;;;4017252;29;20089;-87
2023/01/05 01:16:05;;;;;;;337.38;22.88;;;6.70;99.90;;;;;;4016442;29;20056;-87
2023/01/05 01:18:25;;;;;;;50.88;15.00;;;6.60;99.90;;;;;;4016998;29;20045;-86
2023/01/05 01:20:45;;;;;;;41.95;14.75;;;6.60;99.90;;;;;;4007972;29;20096;-87
2023/01/05 01:23:04;;;;;;;24.52;13.95;;;6.70;99.90;;;;;;4027994;29;20056;-87
2023/01/05 01:25:25;;;;;;;85.80;15.35;;;6.80;99.90;;;;;;4028967;29;20056;-87
2023/01/05 01:27:45;;;;;;;99.63;16.20;;;6.90;99.90;;;;;;4016714;29;20078;-87
2023/01/05 01:30:05;;;;;;;136.27;17.67;;;6.80;99.90;;;;;;4013194;29;20060;-87
2023/01/05 01:32:25;;;;;;;220.25;21.65;;;6.90;99.90;;;;;;4016933;29;20109;-87
2023/01/05 01:34:45;;;;;;;92.20;16.23;;;6.70;99.90;;;;;;4017061;29;20053;-87
2023/01/05 01:37:06;;;;;;;49.95;13.80;;;6.70;99.90;;;;;;4017007;29;20109;-87
2023/01/05 01:39:26;;;;;;;241.70;26.17;;;6.70;99.90;;;;;;4016926;29;20417;-87
2023/01/05 01:41:46;;;;;;;129.50;17.85;;;6.80;99.90;;;;;;4016249;29;20044;-87
2023/01/05 01:44:44;;;;;;;80.55;15.15;;;6.80;99.90;;;;;;4018316;29;20053;-87
2023/01/05 01:47:04;;;;;;;107.07;15.90;;;6.80;99.90;;;;;;4016775;29;20057;-87
2023/01/05 01:49:24;;;;;;;66.40;14.52;;;6.60;99.90;;;;;;4009019;29;20094;-88
2023/01/05 01:51:47;;;;;;;16.27;13.77;;;6.60;99.90;;;;;;4016709;29;20057;-87
2023/01/05 01:54:10;;;;;;;118.78;16.98;;;6.70;99.90;;;;;;4016921;29;20053;-87
2023/01/05 01:56:44;;;;;;;375.27;25.30;;;6.70;99.90;;;;;;4015852;29;20056;-87
2023/01/05 01:59:04;;;;;;;179.23;17.60;;;6.70;99.90;;;;;;4005633;29;20117;-87
2023/01/05 02:01:24;;;;;;;62.45;12.32;;;6.50;99.90;;;;;;4016755;29;20049;-87
2023/01/05 02:03:44;;;;;;;134.48;15.63;;;6.50;99.90;;;;;;4016012;29;20053;-87
2023/01/05 02:06:05;;;;;;;161.27;16.13;;;6.40;99.90;;;;;;4016067;29;20375;-87
2023/01/05 02:08:30;;;;;;;29.67;11.98;;;6.50;99.90;;;;;;4016323;29;20045;-87
2023/01/05 02:11:15;;;;;;;162.00;15.75;;;6.50;99.90;;;;;;4016206;29;20053;-87
2023/01/05 02:14:02;;;;;;;13.88;12.30;;;6.60;99.90;;;;;;4015497;29;20371;-88
2023/01/05 02:16:47;;;;;;;24.48;11.63;;;6.50;99.90;;;;;;4015144;29;20375;-87
2023/01/05 02:19:34;;;;;;;246.27;21.00;;;6.60;99.90;;;;;;4016318;29;20077;-86
2023/01/05 02:22:03;;;;;;;180.65;17.40;;;6.40;99.90;;;;;;4004921;29;20253;-87
2023/01/05 02:24:42;;;;;;;43.33;12.50;;;6.30;99.90;;;;;;4016479;29;20113;-87
2023/01/05 02:27:58;;;;;;;78.45;11.32;;;6.30;99.90;;;;;;4016202;29;20110;-87
2023/01/05 02:30:35;;;;;;;310.40;21.95;;;6.40;99.90;;;;;;3984779;29;20291;-87
2023/01/05 02:33:26;;;;;;;101.80;12.77;;;6.30;99.90;;;;;;3984566;29;20054;-87
2023/01/05 02:36:00;;;;;;;30.73;10.85;;;6.30;99.90;;;;;;4014106;29;20092;-87
2023/01/05 02:38:37;;;;;;;190.40;16.77;;;6.30;99.90;;;;;;4015576;29;20057;-87
2023/01/05 02:41:05;;;;;;;111.47;13.48;;;6.30;99.90;;;;;;4007537;29;20091;-87
2023/01/05 02:43:27;;;;;;;228.10;19.13;;;6.20;99.90;;;;;;4016086;29;20091;-87
2023/01/05 02:45:48;;;;;;;107.68;14.10;;;6.20;99.90;;;;;;4005663;29;20147;-87
2023/01/05 02:48:08;;;;;;;25.52;11.95;;;6.20;99.90;;;;;;4014221;29;20236;-88
2023/01/05 02:50:37;;;;;;;164.38;16.08;;;6.20;99.90;;;;;;4014682;29;20056;-88
2023/01/05 02:53:03;;;;;;;210.25;17.88;;;6.20;99.90;;;;;;4015714;29;20049;-87
2023/01/05 02:55:33;;;;;;;54.13;10.32;;;6.10;99.90;;;;;;4015746;29;20232;-87
2023/01/05 02:57:59;;;;;;;32.55;10.38;;;6.20;99.90;;;;;;4015319;29;20117;-87
2023/01/05 03:00:29;;;;;;;34.58;9.82;;;6.20;99.90;;;;;;4015781;29;20056;-88
2023/01/05 03:02:54;;;;;;;49.92;11.15;;;6.20;99.90;;;;;;4015738;29;20146;-87
2023/01/05 03:05:38;;;;;;;204.32;15.93;;;6.20;99.90;;;;;;4015757;29;20372;-87
2023/01/05 03:08:05;;;;;;;;;;;6.20;99.90;;;;;;4016204;29;20057;-88
2023/01/05 03:15:46;;;;;;;268.50;20.27;;;6.10;99.90;;;;;;4015453;29;20052;-87
2023/01/05 03:18:10;;;;;;;252.35;20.20;;;6.10;99.90;;;;;;4014721;29;20049;-88
2023/01/05 03:20:33;;;;;;;212.02;17.55;;;6.10;99.90;;;;;;4015720;29;20090;-87
2023/01/05 03:37:01;;;;;;;69.18;12.15;;;6.10;99.90;;;;;;4015651;29;20080;-87
2023/01/05 03:39:25;;;;;;;144.20;14.70;;;6.20;99.90;;;;;;4015309;29;20096;-87
2023/01/05 03:41:46;;;;;;;135.02;15.68;;;6.10;99.90;;;;;;4015210;29;20080;-87
2023/01/05 03:44:07;;;;;;;111.22;13.10;;;6.10;99.90;;;;;;4015468;29;20083;-87
2023/01/05 03:46:27;;;;;;;274.20;19.00;;;6.00;99.90;;;;;;4003760;29;20376;-87
2023/01/05 03:48:47;;;;;;;477.88;31.92;;;6.00;99.90;;;;;;4014857;29;20056;-87
2023/01/05 03:51:07;;;;;;;189.20;16.60;;;5.80;99.90;;;;;;4014982;29;20061;-88
2023/01/05 03:53:27;;;;;;;46.75;11.60;;;5.90;99.90;;;;;;4015345;29;20056;-87
2023/01/05 03:55:50;;;;;;;101.90;13.38;;;5.80;99.90;;;;;;4014731;29;20123;-88
2023/01/05 03:58:10;;;;;;;8.95;8.27;;;5.90;99.90;;;;;;4008642;29;20049;-88
2023/01/05 04:00:30;;;;;;;200.15;16.15;;;5.90;99.90;;;;;;4015100;29;20057;-87
2023/01/05 04:02:50;;;;;;;106.25;13.70;;;6.00;99.90;;;;;;4015305;29;20073;-88
2023/01/05 04:05:11;;;;;;;543.10;35.10;;;5.90;99.90;;;;;;4027119;29;20113;-88
2023/01/05 04:07:30;;;;;;;330.30;21.25;;;5.80;99.90;;;;;;4015187;29;20227;-88
2023/01/05 04:09:51;;;;;;;292.55;20.88;;;5.80;99.90;;;;;;4015325;29;20375;-88
2023/01/05 04:12:10;;;;;;;351.85;23.15;;;5.80;99.90;;;;;;4013712;29;20099;-88
2023/01/05 04:14:30;;;;;;;238.40;17.88;;;5.80;99.90;;;;;;4013891;29;20339;-88
2023/01/05 04:16:50;;;;;;;40.40;10.02;;;5.80;99.90;;;;;;4014677;29;20062;-88
2023/01/05 04:19:10;;;;;;;286.23;21.17;;;5.90;99.90;;;;;;4013840;29;20053;-87
2023/01/05 04:21:30;;;;;;;263.48;19.73;;;5.80;99.90;;;;;;4014990;29;20109;-87
2023/01/05 04:23:50;;;;;;;138.13;15.07;;;5.80;99.90;;;;;;4015097;29;20097;-88
2023/01/05 04:26:10;;;;;;;206.85;18.23;;;5.80;99.90;;;;;;4027053;29;20082;-87
2023/01/05 04:28:30;;;;;;;41.45;12.35;;;5.80;99.90;;;;;;4014973;29;20049;-87
2023/01/05 04:30:53;;;;;;;16.75;11.35;;;6.00;99.90;;;;;;4013803;29;20052;-87
2023/01/05 04:33:13;;;;;;;120.85;14.00;;;6.00;99.90;;;;;;4012635;29;20106;-88
2023/01/05 04:35:33;;;;;;;117.78;15.63;;;6.10;99.90;;;;;;4005238;29;20085;-87
2023/01/05 04:37:53;;;;;;;13.82;10.98;;;6.20;99.90;;;;;;4014594;29;20329;-87
2023/01/05 04:40:13;;;;;;;27.90;10.77;;;6.30;99.90;;;;;;4014782;29;20049;-87
2023/01/05 04:42:32;;;;;;;127.10;14.52;;;6.30;99.90;;;;;;4013758;29;20075;-87
2023/01/05 04:44:52;;;;;;;159.38;14.73;;;6.20;99.90;;;;;;4026797;29;20056;-87
2023/01/05 04:47:12;;;;;;;268.45;19.58;;;6.20;99.90;;;;;;4014648;29;20056;-87
2023/01/05 04:49:32;;;;;;;148.55;13.63;;;6.00;99.90;;;;;;4014851;29;20084;-88
2023/01/05 04:51:51;;;;;;;35.88;11.43;;;6.00;99.90;;;;;;4026538;29;20387;-88
2023/01/05 04:54:11;;;;;;;293.77;20.70;;;6.00;99.90;;;;;;4013926;29;20081;-87
2023/01/05 04:56:30;;;;;;;41.45;9.50;;;6.00;99.90;;;;;;4013892;29;20325;-87
2023/01/05 04:58:50;;;;;;;117.75;13.50;;;6.00;99.90;;;;;;4014253;29;20118;-88
2023/01/05 05:01:09;;;;;;;98.13;13.57;;;6.00;99.90;;;;;;4013477;29;20387;-87
2023/01/05 05:03:30;;;;;;;123.45;13.82;;;6.10;99.90;;;;;;4014609;29;20090;-87
2023/01/05 05:05:52;;;;;;;32.10;10.57;;;6.00;99.90;;;;;;4026257;29;20065;-87
2023/01/05 05:08:13;;;;;;;33.65;10.38;;;6.00;99.90;;;;;;4014241;29;20049;-86
2023/01/05 05:10:33;;;;;;;47.78;11.23;;;6.10;99.90;;;;;;4013901;29;20061;-87
2023/01/05 05:12:53;;;;;;;106.63;13.73;;;6.10;99.90;;;;;;4013743;29;20041;-87
2023/01/05 05:15:13;;;;;;;79.22;11.70;;;6.10;99.90;;;;;;4014494;29;20049;-87
2023/01/05 05:17:33;;;;;;;148.13;13.85;;;6.10;99.90;;;;;;4014508;29;20049;-88
2023/01/05 05:19:53;;;;;;;22.15;9.32;;;6.00;99.90;;;;;;4014198;29;20057;-88
2023/01/05 05:22:13;;;;;;;30.13;9.40;;;6.00;99.90;;;;;;4013224;29;20049;-88
2023/01/05 05:24:33;;;;;;;63.45;10.80;;;6.10;99.90;;;;;;4007439;29;20083;-87
2023/01/05 05:26:53;;;;;;;70.32;11.23;;;6.10;99.90;;;;;;4014374;29;20067;-87
2023/01/05 05:29:13;;;;;;;76.93;11.75;;;6.10;99.90;;;;;;4014278;29;20049;-87
2023/01/05 05:31:33;;;;;;;61.05;12.70;;;6.10;99.90;;;;;;4014444;29;20240;-87
2023/01/05 05:33:53;;;;;;;11.13;9.88;;;6.10;99.90;;;;;;4014315;29;20076;-87
2023/01/05 05:36:13;;;;;;;56.15;10.60;;;6.20;99.90;;;;;;4016284;29;20053;-87
2023/01/05 05:38:33;;;;;;;108.70;13.63;;;6.10;99.90;;;;;;4014343;29;20045;-87
2023/01/05 05:40:53;;;;;;;12.10;10.05;;;6.20;99.90;;;;;;4013846;29;20168;-87
2023/01/05 05:43:13;;;;;;;24.98;9.32;;;6.20;99.90;;;;;;4013998;29;20064;-87
2023/01/05 05:45:32;;;;;;;10.40;9.90;;;6.20;99.90;;;;;;4014385;29;20060;-87
2023/01/05 05:47:52;;;;;;;39.85;10.93;;;6.20;99.90;;;;;;4015539;29;20375;-87
2023/01/05 05:50:12;;;;;;;132.10;15.93;;;6.30;99.90;;;;;;4016759;29;20052;-87
2023/01/05 05:52:31;;;;;;;42.55;12.25;;;6.30;99.90;;;;;;4015591;29;20099;-87
2023/01/05 05:54:52;;;;;;;50.63;12.45;;;6.20;99.90;;;;;;4016425;29;20082;-88
2023/01/05 05:57:11;;;;;;;75.68;12.63;;;6.20;99.90;;;;;;4015953;29;20114;-87
2023/01/05 05:59:31;;;;;;;41.35;11.38;;;6.30;99.90;;;;;;4016675;29;20241;-87
2023/01/05 06:01:51;;;;;;;52.47;12.73;;;6.30;99.90;;;;;;4016731;29;20363;-88
2023/01/05 06:04:11;;;;;;;36.72;12.10;;;6.20;99.90;;;;;;4015542;29;20375;-88
2023/01/05 06:06:31;;;;;;;40.65;13.07;;;6.30;99.90;;;;;;4028740;29;20108;-87
2023/01/05 06:08:51;;;;;;;65.97;13.18;;;6.30;99.90;;;;;;4016452;29;20053;-87
2023/01/05 06:11:11;;;;;;;125.47;15.10;;;6.20;99.90;;;;;;4016221;29;20074;-87
2023/01/05 06:13:31;;;;;;;219.63;23.38;;;6.20;99.90;;;;;;4005203;29;20056;-87
2023/01/05 06:15:51;;;;;;;195.85;24.67;;;6.20;99.90;;;;;;4014793;29;20091;-87
2023/01/05 06:18:11;;;;;;;74.88;15.05;;;6.20;99.90;;;;;;4017105;29;20053;-87
2023/01/05 06:20:31;;;;;;;55.70;18.65;;;6.20;99.90;;;;;;4028473;29;20056;-87
2023/01/05 06:22:51;;;;;;;83.38;21.73;;;6.20;99.90;;;;;;4015500;29;20069;-88
2023/01/05 06:25:11;;;;;;;183.25;24.92;;;6.20;99.90;;;;;;4015968;29;20179;-88
2023/01/05 06:27:31;;;;;;;114.75;26.08;;;6.20;99.90;;;;;;4016150;29;20053;-88
2023/01/05 06:29:52;;;;;;;242.27;25.30;;;6.20;99.90;;;;;;4015550;29;20087;-88
2023/01/05 06:32:11;;;;;;;150.45;25.15;;;6.20;99.90;;;;;;4027935;29;20150;-88
2023/01/05 06:34:32;;;;;;;209.32;29.80;;;6.20;99.90;;;;;;4027821;29;20228;-88
2023/01/05 06:36:55;;;;;;;94.10;20.48;;;6.20;99.90;;;;;;4015071;29;20049;-88
2023/01/05 06:39:21;;;;;;;183.65;17.13;;;6.30;99.90;;;;;;4016097;29;20049;-88
2023/01/05 06:41:41;;;;;;;76.13;13.20;;;6.30;99.90;;;;;;4016229;29;20072;-89
2023/01/05 06:44:00;;;;;;;198.00;19.58;;;6.30;99.90;;;;;;4016155;29;20045;-88
2023/01/05 06:46:21;;;;;;;198.05;23.23;;;6.30;99.90;;;;;;4015523;29;20098;-89
2023/01/05 06:48:40;;;;;;;289.02;21.77;;;6.20;99.90;;;;;;4015290;29;20072;-89
2023/01/05 06:51:00;;;;;;;179.68;17.35;;;6.30;99.90;;;;;;4006559;29;20451;-89
2023/01/05 06:53:20;;;;;;;107.47;15.57;;;6.30;99.90;;;;;;4014718;29;20056;-89
2023/01/05 06:55:40;;;;;;;100.50;15.18;;;6.30;99.90;;;;;;4015812;29;20053;-89
2023/01/05 06:58:00;;;;;;;127.53;14.30;;;6.30;99.90;;;;;;4014626;29;20103;-89
2023/01/05 07:00:22;;;;;;;125.03;14.50;;;6.30;99.90;;;;;;4014498;29;20053;-89
2023/01/05 07:02:42;;;;;;;33.85;13.00;;;6.30;99.90;;;;;;4015981;29;20056;-89
2023/01/05 07:05:02;;;;;;;195.30;17.92;;;6.30;99.90;;;;;;4015061;29;20061;-89
2023/01/05 07:07:22;;;;;;;105.50;13.85;;;6.30;99.90;;;;;;4015831;29;20405;-89
2023/01/05 07:09:47;;;;;;;76.35;14.30;;;6.30;99.90;;;;;;4015880;29;20073;-89
2023/01/05 07:12:07;;;;;;;53.90;13.30;;;6.40;99.90;;;;;;4026424;29;20072;-89
2023/01/05 07:14:28;;;;;;;193.35;18.10;;;6.40;99.90;;;;;;4014020;29;20085;-90
2023/01/05 07:16:47;;;;;;;145.90;18.10;;;6.40;99.90;;;;;;4014001;29;20052;-89
2023/01/05 07:19:09;;;;;;;237.80;20.25;;;6.40;99.90;;;;;;4015443;29;20100;-89
2023/01/05 07:21:28;;;;;;;132.05;15.43;;;6.40;99.90;;;;;;4027110;29;20261;-89
2023/01/05 07:23:48;;;;;;;20.35;12.35;;;6.40;99.90;;;;;;4015112;29;20049;-89
2023/01/05 07:26:09;;;;;;;19.20;9.75;;;6.40;99.90;;;;;;4015680;29;20117;-89
2023/01/05 07:28:29;;;;;;;13.07;10.70;;;6.40;99.90;;;;;;4013773;29;20094;-89
2023/01/05 07:30:52;;;;;;;20.23;11.90;;;6.50;99.90;;;;;;4015630;29;20090;-89
2023/01/05 07:33:12;;;;;;;20.08;13.23;;;6.50;99.90;;;;;;4015328;29;20408;-89
2023/01/05 07:35:33;;;;;;;61.97;14.10;;;6.50;99.90;;;;;;4014818;29;20057;-89
2023/01/05 07:37:55;;;;;;;13.07;11.68;;;6.40;99.90;;;;;;4015532;29;20527;-89
2023/01/05 07:40:15;;;;;;;19.13;12.97;;;6.40;99.90;;;;;;4013899;29;20077;-89
2023/01/05 07:42:35;;;;;;;26.02;12.30;;;6.50;99.90;;;;;;4015537;29;20368;-89
2023/01/05 07:44:55;;;;;;;11.95;10.75;;;6.50;99.90;;;;;;4013368;29;20057;-89
2023/01/05 07:47:15;;;;;;;13.73;11.38;;;6.60;99.90;;;;;;4015197;29;20049;-89
2023/01/05 07:49:35;;;;;;;14.25;11.48;;;6.60;99.90;;;;;;4014605;29;20057;-89
2023/01/05 07:51:55;;;;;;;159.82;23.52;;;6.60;99.90;;;;;;4014274;29;20061;-89
2023/01/05 07:54:15;;;;;;;33.72;14.15;;;6.60;99.90;;;;;;4015260;29;20117;-89
2023/01/05 07:56:35;;;;;;;55.40;20.50;;;6.60;99.90;;;;;;4015152;29;20291;-89
2023/01/05 07:58:55;;;;;;;100.38;27.38;;;6.70;99.90;;;;;;4002720;29;20156;-89
2023/01/05 08:01:17;;;;;;;136.02;68.22;;;6.70;99.90;;;;;;4014604;29;20049;-89
2023/01/05 08:03:37;;;;;;;40.38;17.30;;;6.70;99.90;;;;;;4015100;29;20049;-89
2023/01/05 08:06:02;;;;;;;47.08;12.57;;;6.70;99.90;;;;;;4014630;29;20093;-89
2023/01/05 08:08:22;;;;;;;18.88;14.80;;;6.70;99.90;;;;;;4012459;29;20274;-89
2023/01/05 08:10:44;;;;;;;24.05;14.07;;;6.60;99.90;;;;;;4014319;29;20131;-89
2023/01/05 08:15:42;;;;;;;157.75;21.25;;;6.80;99.90;;;;;;4014098;29;20130;-89
2023/01/05 08:18:10;;;;;;;182.93;21.92;;;6.80;99.90;;;;;;4014184;29;20045;-89
2023/01/05 08:20:30;;;;;;;79.13;15.13;;;6.70;99.90;;;;;;4015068;29;20409;-89
2023/01/05 08:22:53;;;;;;;161.73;17.77;;;6.70;99.90;;;;;;4015201;29;20056;-89
2023/01/05 08:25:13;;;;;;;73.15;14.60;;;6.70;99.90;;;;;;4014802;29;20094;-89
2023/01/05 08:27:33;;;;;;;355.52;24.80;;;6.70;99.90;;;;;;4014945;29;20151;-89
2023/01/05 08:29:53;;;;;;;326.42;75.57;;;6.70;99.90;;;;;;4014728;29;20091;-89
2023/01/05 08:32:13;;;;;;;214.93;36.53;;;6.70;99.90;;;;;;4014875;29;20387;-89
2023/01/05 08:34:34;;;;;;;223.07;23.15;;;6.70;99.90;;;;;;4014173;29;20118;-89
2023/01/05 08:36:54;;;;;;;115.35;20.25;;;6.70;99.90;;;;;;4014900;29;20158;-89
2023/01/05 08:39:14;;;;;;;68.07;34.30;;;6.70;99.90;;;;;;4014310;29;20100;-89
2023/01/05 08:41:36;;;;;;;244.15;44.15;;;6.80;99.90;;;;;;4014793;29;20049;-92
2023/01/05 08:43:58;;;;;;;168.82;25.30;;;6.90;99.90;;;;;;4013603;29;20041;-89
2023/01/05 08:46:20;;;;;;;145.02;27.20;;;6.90;99.90;;;;;;4006353;29;20081;-89
2023/01/05 08:48:40;;;;;;;67.15;18.50;;;6.90;99.90;;;;;;4013694;29;20067;-89
2023/01/05 08:51:06;;;;;;;117.38;15.52;;;6.90;99.90;;;;;;4008478;29;20121;-89
2023/01/05 08:53:25;;;;;;;133.40;17.33;;;6.90;99.90;;;;;;4026896;29;20088;-89
2023/01/05 08:55:45;;;;;;;55.25;20.40;;;6.90;99.90;;;;;;4013147;29;20093;-90
2023/01/05 08:58:05;;;;;;;50.30;15.93;;;7.00;99.90;;;;;;4025095;29;20094;-90
2023/01/05 09:00:26;;;;;;;91.80;17.45;;;7.00;99.90;;;;;;4014510;29;20133;-89
2023/01/05 09:02:46;;;;;;;50.30;16.08;;;7.10;99.90;;;;;;4017863;29;20363;-89
2023/01/05 09:05:07;;;;;;;130.10;22.98;;;7.20;99.90;;;;;;4013734;29;20053;-90
2023/01/05 09:07:27;;;;;;;141.93;19.77;;;7.10;99.90;;;;;;4014155;29;20069;-90
2023/01/05 09:09:47;;;;;;;157.40;18.95;;;7.00;99.90;;;;;;4014680;29;20095;-89
2023/01/05 09:12:07;;;;;;;32.30;13.57;;;7.10;99.90;;;;;;4012411;29;20053;-89
2023/01/05 09:14:27;;;;;;;44.65;14.75;;;7.20;99.90;;;;;;4001625;29;20050;-90
2023/01/05 09:16:48;;;;;;;56.97;13.48;;;7.20;99.90;;;;;;4013895;29;20064;-90
2023/01/05 09:19:28;;;;;;;45.40;12.75;;;7.20;99.90;;;;;;4014410;29;20108;-90
2023/01/05 09:21:48;;;;;;;33.83;12.10;;;7.30;99.90;;;;;;4017608;29;20416;-90
2023/01/05 09:24:13;;;;;;;51.65;16.17;;;7.30;99.90;;;;;;4017197;29;20423;-89
2023/01/05 09:26:33;;;;;;;23.23;14.68;;;7.30;99.90;;;;;;4021974;29;20068;-90
2023/01/05 09:28:53;;;;;;;27.23;12.32;;;7.30;99.90;;;;;;4016604;29;20053;-90
2023/01/05 09:31:19;;;;;;;19.70;12.02;;;7.40;99.90;;;;;;4016984;29;20057;-90
2023/01/05 09:33:39;;;;;;;33.92;13.38;;;7.40;99.90;;;;;;4016911;29;20049;-90
2023/01/05 09:35:59;;;;;;;39.90;15.07;;;7.40;99.90;;;;;;4016964;29;20057;-89
2023/01/05 09:38:19;;;;;;;65.10;15.68;;;7.40;99.90;;;;;;4016935;29;20104;-90
2023/01/05 09:40:42;;;;;;;26.95;14.05;;;7.50;99.90;;;;;;4029025;29;20057;-90
2023/01/05 09:43:02;;;;;;;27.23;16.80;;;7.50;99.90;;;;;;4024018;29;20060;-90
2023/01/05 09:45:25;;;;;;;36.75;20.92;;;7.50;99.90;;;;;;4028516;29;20121;-90
2023/01/05 09:47:46;;;;;;;34.83;14.73;;;7.60;99.90;;;;;;4018060;29;20113;-90
2023/01/05 09:50:15;;;;;;;19.65;16.25;;;7.70;99.90;;;;;;4016561;29;20060;-90
2023/01/05 09:52:35;;;;;;;37.90;16.30;;;7.80;99.90;;;;;;4028384;29;20166;-90
2023/01/05 09:54:58;;;;;;;34.58;16.70;;;7.80;99.90;;;;;;4016859;29;20089;-90
2023/01/05 09:57:25;;;;;;;32.55;16.40;;;7.70;99.90;;;;;;4016727;29;20069;-90
2023/01/05 09:59:51;;;;;;;38.72;17.05;;;7.70;99.90;;;;;;4016571;29;20118;-90
2023/01/05 10:02:32;;;;;;;18.33;16.42;;;7.80;99.90;;;;;;4028878;29;20121;-90
2023/01/05 10:04:54;;;;;;;28.45;18.65;;;7.90;99.90;;;;;;4016411;29;20053;-90
2023/01/05 10:07:39;;;;;;;20.95;16.48;;;7.90;99.90;;;;;;4016324;29;20068;-90
2023/01/05 10:10:10;;;;;;;36.40;15.77;;;7.80;99.90;;;;;;4014977;29;20261;-91
2023/01/05 10:13:02;;;;;;;39.03;18.92;;;7.80;99.90;;;;;;4016504;29;20067;-91
2023/01/05 10:15:22;;;;;;;27.80;24.80;;;7.90;99.90;;;;;;4025561;29;20052;-90
2023/01/05 10:17:43;;;;;;;20.40;18.40;;;8.00;99.90;;;;;;4027630;29;20049;-90
2023/01/05 10:20:17;;;;;;;20.20;18.20;;;8.10;99.90;;;;;;4015143;29;20061;-90
2023/01/05 10:22:48;;;;;;;20.35;18.25;;;8.10;99.90;;;;;;4016383;29;20129;-90
2023/01/05 10:25:50;;;;;;;28.65;21.90;;;8.20;99.90;;;;;;4015699;29;20297;-90
2023/01/05 10:28:40;;;;;;;25.83;18.58;;;8.20;99.90;;;;;;4015454;29;20053;-90
2023/01/05 10:31:08;;;;;;;15.40;13.88;;;8.30;99.90;;;;;;4014893;29;20085;-90
2023/01/05 10:33:53;;;;;;;22.33;17.05;;;8.40;99.90;;;;;;4015103;29;20254;-90
2023/01/05 10:36:46;;;;;;;19.65;17.63;;;8.40;99.90;;;;;;4015876;29;20048;-90
2023/01/05 10:39:45;;;;;;;21.15;17.58;;;8.40;99.90;;;;;;4009399;29;20072;-91
2023/01/05 10:42:18;;;;;;;21.85;18.48;;;8.40;99.90;;;;;;4016042;29;20049;-90
2023/01/05 10:44:58;;;;;;;22.55;18.95;;;8.50;99.90;;;;;;4016212;29;20083;-90
2023/01/05 10:47:19;;;;;;;27.77;21.13;;;8.50;99.90;;;;;;4007536;29;20469;-91
2023/01/05 10:49:44;;;;;;;24.67;21.15;;;8.50;99.90;;;;;;4015323;29;20061;-91
2023/01/05 10:52:10;;;;;;;26.63;21.58;;;8.60;99.90;;;;;;4014130;29;20088;-91
2023/01/05 10:54:41;;;;;;;23.77;21.17;;;8.70;99.90;;;;;;4014171;29;20421;-91
2023/01/05 10:57:27;;;;;;;23.17;18.98;;;8.80;99.90;;;;;;4016243;29;20056;-91
2023/01/05 10:59:55;;;;;;;18.52;16.88;;;8.80;99.90;;;;;;4008993;29;20041;-91
2023/01/05 11:02:15;;;;;;;19.27;16.02;;;8.70;99.90;;;;;;4015804;29;20090;-91
2023/01/05 11:04:35;;;;;;;17.33;15.68;;;8.70;99.90;;;;;;4015367;29;20057;-90
2023/01/05 11:07:06;;;;;;;16.58;14.85;;;8.80;99.90;;;;;;4015151;29;20079;-91
2023/01/05 11:09:26;;;;;;;17.30;14.48;;;8.90;99.90;;;;;;4014661;29;20053;-91
2023/01/05 11:11:57;;;;;;;18.10;15.57;;;9.00;99.90;;;;;;4015826;29;20094;-91
2023/01/05 11:14:19;;;;;;;16.33;14.82;;;9.10;99.90;;;;;;4013899;29;20053;-91
2023/01/05 11:16:51;;;;;;;18.27;16.25;;;9.10;99.90;;;;;;4015753;29;20189;-91
2023/01/05 11:19:15;;;;;;;21.27;18.95;;;9.20;99.90;;;;;;4014741;29;20294;-91
2023/01/05 11:21:36;;;;;;;18.50;16.90;;;9.20;99.90;;;;;;4014904;29;20057;-91
2023/01/05 11:23:58;;;;;;;19.70;17.65;;;9.30;99.90;;;;;;4015343;29;20053;-91
2023/01/05 11:26:17;;;;;;;17.20;15.60;;;9.70;99.90;;;;;;4015604;29;20383;-91
2023/01/05 11:28:40;;;;;;;16.33;14.88;;;9.70;99.90;;;;;;4015740;29;20041;-90
2023/01/05 11:31:05;;;;;;;16.92;15.40;;;9.80;99.90;;;;;;4015767;29;20056;-91
2023/01/05 11:33:28;;;;;;;16.42;15.00;;;9.80;99.90;;;;;;4013452;29;20057;-92
2023/01/05 11:35:49;;;;;;;15.52;14.20;;;10.20;99.90;;;;;;4014120;29;20244;-91
2023/01/05 11:38:37;;;;;;;15.25;14.07;;;9.80;99.90;;;;;;4015705;29;20114;-91
2023/01/05 11:40:59;;;;;;;15.10;13.93;;;10.00;99.90;;;;;;4015297;29;20045;-92
2023/01/05 11:43:20;;;;;;;14.57;13.23;;;10.20;99.90;;;;;;4014543;29;20400;-91
2023/01/05 11:45:48;;;;;;;14.02;12.95;;;10.20;99.90;;;;;;4015456;29;20057;-91
2023/01/05 11:48:14;;;;;;;14.90;13.50;;;10.20;99.90;;;;;;4014435;29;20049;-92
2023/01/05 11:50:55;;;;;;;12.20;11.38;;;10.30;99.90;;;;;;4014556;29;20049;-92
2023/01/05 11:53:30;;;;;;;12.10;11.20;;;10.40;99.90;;;;;;4026991;29;20095;-91
2023/01/05 11:56:09;;;;;;;13.13;12.18;;;10.70;99.90;;;;;;4015212;29;20387;-92
2023/01/05 11:58:33;;;;;;;10.52;9.95;;;10.80;99.90;;;;;;4014025;29;20057;-92
2023/01/05 12:00:59;;;;;;;10.20;9.50;;;10.70;99.90;;;;;;4013654;29;20049;-92
2023/01/05 12:03:46;;;;;;;11.60;10.88;;;10.50;99.90;;;;;;4014492;29;20405;-91
2023/01/05 12:06:45;;;;;;;10.18;9.77;;;10.50;99.90;;;;;;4014957;29;20049;-92
2023/01/05 12:09:27;;;;;;;9.15;8.52;;;10.30;99.90;;;;;;4014350;29;20359;-91
2023/01/05 12:11:54;;;;;;;10.38;9.88;;;10.30;99.90;;;;;;4026220;29;20052;-91
2023/01/05 12:14:40;;;;;;;10.82;10.25;;;10.50;99.90;;;;;;4014927;29;20108;-92
2023/01/05 12:17:11;;;;;;;9.85;9.52;;;10.50;99.90;;;;;;4014793;29;20073;-91
2023/01/05 12:19:57;;;;;;;10.93;10.00;;;10.50;99.90;;;;;;4014489;29;20080;-91
2023/01/05 12:22:35;;;;;;;10.57;9.75;;;10.50;99.90;;;;;;4013484;29;20049;-92
2023/01/05 12:25:23;;;;;;;10.55;9.98;;;10.80;99.90;;;;;;4014983;29;20080;-91
2023/01/05 12:28:16;;;;;;;11.70;11.02;;;10.80;99.90;;;;;;4014448;29;20397;-91
2023/01/05 12:31:12;;;;;;;9.80;9.13;;;10.80;99.90;;;;;;4014182;29;20101;-92
2023/01/05 12:34:04;;;;;;;9.65;9.00;;;10.60;99.90;;;;;;4023522;29;20090;-92
2023/01/05 12:36:56;;;;;;;9.23;8.80;;;10.70;99.90;;;;;;4014618;29;20049;-91
2023/01/05 12:39:34;;;;;;;;;;;10.90;99.90;;;;;;4007534;29;20126;-91
2023/01/05 12:41:54;;;;;;;9.15;8.95;;;11.00;99.90;;;;;;4013790;29;19962;-88
2023/01/05 12:44:47;;;;;;;9.38;8.93;;;10.90;99.90;;;;;;4014214;29;20101;-87
2023/01/05 12:47:38;;;;;;;8.13;7.82;;;10.90;99.90;;;;;;4014136;29;20290;-86
2023/01/05 12:50:21;;;;;;;10.38;9.77;;;10.70;99.90;;;;;;4026575;29;20090;-86
2023/01/05 12:52:47;;;;;;;11.52;10.85;;;10.80;99.90;;;;;;4025308;29;20052;-86
2023/01/05 12:55:24;;;;;;;10.52;9.82;;;10.80;99.90;;;;;;4012754;29;20057;-86
2023/01/05 12:57:56;;;;;;;10.73;10.23;;;10.70;99.90;;;;;;4013203;29;20428;-87